createdAt,value
2022-10-26T00:01:11.351Z,102639.84
2022-10-26T00:03:40.019Z,102656.75
2022-10-26T00:06:15.690Z,102646.03
2022-10-26T00:08:42.457Z,102652.38
2022-10-26T00:11:09.185Z,102654.91
2022-10-26T00:13:36.936Z,102664.91
2022-10-26T00:16:24.937Z,102657.13
2022-10-26T00:18:51.373Z,102651.84
2022-10-26T00:21:18.524Z,102644.00
2022-10-26T00:23:45.097Z,102642.13
2022-10-26T00:26:11.992Z,102648.63
2022-10-26T00:28:38.571Z,102634.81
2022-10-26T00:31:08.733Z,102641.88
2022-10-26T00:33:35.957Z,102651.75
2022-10-26T00:36:02.666Z,102618.38
2022-10-26T00:38:29.199Z,102659.97
2022-10-26T00:40:55.819Z,102655.72
2022-10-26T00:43:22.178Z,102672.56
2022-10-26T00:45:55.160Z,102661.97
2022-10-26T00:48:31.677Z,102690.03
2022-10-26T00:51:01.186Z,102669.63
2022-10-26T00:53:28.894Z,102692.78
2022-10-26T00:55:56.620Z,102697.88
2022-10-26T00:58:24.396Z,102689.81
2022-10-26T01:00:51.492Z,102700.56
2022-10-26T01:03:18.427Z,102682.78
2022-10-26T01:05:47.466Z,102685.31
2022-10-26T01:08:17.139Z,102681.81
2022-10-26T01:10:44.158Z,102682.94
2022-10-26T01:13:13.171Z,102651.03
2022-10-26T01:15:55.311Z,102658.94
2022-10-26T01:18:35.279Z,102682.06
2022-10-26T01:21:29.579Z,102668.97
2022-10-26T01:24:35.047Z,102668.88
2022-10-26T01:27:04.488Z,102675.16
2022-10-26T01:30:01.605Z,102665.53
2022-10-26T01:32:40.034Z,102668.84
2022-10-26T01:35:16.189Z,102664.56
2022-10-26T01:37:48.247Z,102656.03
2022-10-26T01:40:25.382Z,102655.72
2022-10-26T01:42:55.262Z,102643.47
2022-10-26T01:45:22.249Z,102674.59
2022-10-26T01:47:49.827Z,102675.56
2022-10-26T01:50:18.594Z,102687.97
2022-10-26T01:52:44.962Z,102689.81
2022-10-26T01:55:39.372Z,102681.09
2022-10-26T01:58:24.232Z,102689.88
2022-10-26T02:01:02.065Z,102697.78
2022-10-26T02:03:40.386Z,102710.75
2022-10-26T02:06:14.389Z,102701.97
2022-10-26T02:08:52.332Z,102719.22
2022-10-26T02:11:36.129Z,102709.72
2022-10-26T02:17:11.772Z,102705.22
2022-10-26T02:19:52.726Z,102690.59
2022-10-26T02:22:34.122Z,102680.56
2022-10-26T02:25:07.164Z,102663.06
2022-10-26T02:27:38.365Z,102641.22
2022-10-26T02:30:06.080Z,102645.72
2022-10-26T02:32:37.585Z,102642.84
2022-10-26T02:35:05.698Z,102651.72
2022-10-26T02:37:35.214Z,102632.31
2022-10-26T02:40:06.075Z,102619.63
2022-10-26T02:42:33.566Z,102618.63
2022-10-26T02:45:09.967Z,102617.03
2022-10-26T02:47:36.528Z,102614.06
2022-10-26T02:50:03.671Z,102620.28
2022-10-26T02:52:42.272Z,102622.03
2022-10-26T02:55:36.731Z,102620.28
2022-10-26T02:58:11.837Z,102623.72
2022-10-26T03:00:38.939Z,102618.41
2022-10-26T03:03:05.403Z,102678.50
2022-10-26T03:05:33.010Z,102918.59
2022-10-26T03:08:01.059Z,102921.34
2022-10-26T03:10:27.637Z,102943.53
2022-10-26T03:12:54.492Z,102964.00
2022-10-26T03:15:21.006Z,102964.03
2022-10-26T03:17:47.828Z,102952.50
2022-10-26T03:20:14.602Z,102955.16
2022-10-26T03:22:41.077Z,102977.13
2022-10-26T03:27:35.390Z,102995.06
2022-10-26T03:30:01.865Z,102999.44
2022-10-26T03:32:28.268Z,103009.13
2022-10-26T03:34:54.718Z,103009.19
2022-10-26T03:37:21.103Z,103026.84
2022-10-26T03:39:47.539Z,103030.41
2022-10-26T03:42:13.939Z,103039.22
2022-10-26T03:44:40.428Z,103029.56
2022-10-26T03:47:06.819Z,103041.88
2022-10-26T03:49:33.369Z,103031.44
2022-10-26T03:51:59.750Z,103043.91
2022-10-26T03:54:26.214Z,103031.59
2022-10-26T03:56:55.184Z,103049.22
2022-10-26T03:59:21.994Z,103063.25
2022-10-26T04:01:50.601Z,103055.31
2022-10-26T04:04:19.329Z,103063.25
2022-10-26T04:09:13.114Z,103123.00
2022-10-26T04:11:39.519Z,103120.13
2022-10-26T04:14:05.963Z,103118.19
2022-10-26T04:16:33.467Z,103112.91
2022-10-26T04:19:00.635Z,103101.50
2022-10-26T04:21:27.066Z,103093.63
2022-10-26T04:23:53.564Z,103103.41
2022-10-26T04:26:20.319Z,103106.03
2022-10-26T04:28:46.739Z,103106.91
2022-10-26T04:31:13.134Z,103098.19
2022-10-26T04:33:39.734Z,103108.72
2022-10-26T04:36:06.541Z,103112.38
2022-10-26T04:38:33.083Z,103116.00
2022-10-26T04:40:59.509Z,103146.72
2022-10-26T04:43:25.990Z,103200.59
2022-10-26T04:45:57.073Z,103246.44
2022-10-26T04:50:51.867Z,103297.28
2022-10-26T04:53:18.266Z,103279.84
2022-10-26T04:55:44.924Z,103289.56
2022-10-26T04:58:11.404Z,103276.34
2022-10-26T05:00:37.838Z,103298.25
2022-10-26T05:03:06.610Z,103292.88
2022-10-26T05:05:34.965Z,103305.28
2022-10-26T05:08:01.578Z,103302.59
2022-10-26T05:10:28.797Z,103300.91
2022-10-26T05:12:57.250Z,103291.28
2022-10-26T05:15:23.656Z,103293.78
2022-10-26T05:18:06.356Z,103277.16
2022-10-26T05:20:34.872Z,103280.69
2022-10-26T05:23:07.107Z,103290.09
2022-10-26T05:25:38.023Z,103261.03
2022-10-26T05:28:10.810Z,103276.00
2022-10-26T05:30:39.515Z,103271.72
2022-10-26T05:33:07.615Z,103264.81
2022-10-26T05:35:34.266Z,103268.38
2022-10-26T05:38:07.407Z,103269.25
2022-10-26T05:40:34.161Z,103275.50
2022-10-26T05:43:02.041Z,103264.84
2022-10-26T05:45:29.283Z,103270.13
2022-10-26T05:47:58.603Z,103271.94
2022-10-26T05:50:28.372Z,103268.38
2022-10-26T05:52:55.855Z,103267.53
2022-10-26T05:55:22.931Z,103271.16
2022-10-26T05:57:49.916Z,103257.00
2022-10-26T06:00:19.917Z,103272.81
2022-10-26T06:03:08.135Z,103282.59
2022-10-26T06:05:50.632Z,103263.13
2022-10-26T06:08:17.246Z,103265.78
2022-10-26T06:10:43.923Z,103249.22
2022-10-26T06:13:10.595Z,103278.38
2022-10-26T06:15:49.012Z,103268.72
2022-10-26T06:18:35.188Z,103262.53
2022-10-26T06:21:34.012Z,103273.03
2022-10-26T06:24:14.610Z,103253.69
2022-10-26T06:27:02.703Z,103270.38
2022-10-26T06:29:49.935Z,103253.69
2022-10-26T06:32:17.556Z,103250.91
2022-10-26T06:34:48.739Z,103268.38
2022-10-26T06:37:15.591Z,103256.09
2022-10-26T06:39:52.602Z,103255.09
2022-10-26T06:42:21.492Z,103262.16
2022-10-26T06:44:48.574Z,103268.16
2022-10-26T06:47:23.440Z,103267.38
2022-10-26T06:50:24.219Z,103267.31
2022-10-26T06:53:16.601Z,103272.69
2022-10-26T06:55:46.209Z,103266.50
2022-10-26T06:58:21.639Z,103270.72
2022-10-26T07:00:50.125Z,103272.38
2022-10-26T07:03:16.975Z,103271.34
2022-10-26T07:05:45.241Z,103266.06
2022-10-26T07:08:11.741Z,103260.59
2022-10-26T07:10:39.273Z,103270.28
2022-10-26T07:13:06.687Z,103259.66
2022-10-26T07:15:34.551Z,103248.13
2022-10-26T07:18:03.174Z,103227.72
2022-10-26T07:20:29.608Z,103225.13
2022-10-26T07:22:57.049Z,103218.03
2022-10-26T07:25:25.293Z,103228.41
2022-10-26T07:27:52.579Z,103231.97
2022-10-26T07:30:19.082Z,103237.16
2022-10-26T07:32:45.527Z,103244.97
2022-10-26T07:35:12.019Z,103242.97
2022-10-26T07:37:38.521Z,103236.59
2022-10-26T07:40:06.937Z,103229.63
2022-10-26T07:42:34.381Z,103225.84
2022-10-26T07:45:00.874Z,103215.00
2022-10-26T07:47:27.295Z,103191.81
2022-10-26T07:49:53.718Z,103208.56
2022-10-26T07:52:20.106Z,103200.66
2022-10-26T07:54:46.510Z,103203.97
2022-10-26T07:57:12.924Z,103198.56
2022-10-26T07:59:39.560Z,103210.81
2022-10-26T08:02:06.148Z,103207.16
2022-10-26T08:04:32.809Z,103197.41
2022-10-26T08:06:59.263Z,103206.97
2022-10-26T08:09:25.671Z,103195.22
2022-10-26T08:11:52.246Z,103198.50
2022-10-26T08:14:18.645Z,103193.94
2022-10-26T08:16:45.637Z,103183.47
2022-10-26T08:19:12.049Z,103185.81
2022-10-26T08:21:40.440Z,103191.00
2022-10-26T08:24:07.828Z,103167.88
2022-10-26T08:26:34.324Z,103168.31
2022-10-26T08:29:00.735Z,103137.34
2022-10-26T08:31:27.128Z,103121.16
2022-10-26T08:33:53.580Z,103088.34
2022-10-26T08:36:26.062Z,102894.78
2022-10-26T08:38:52.736Z,102814.88
2022-10-26T08:41:34.957Z,102759.28
2022-10-26T08:44:20.689Z,102677.53
2022-10-26T08:46:53.452Z,102604.97
2022-10-26T08:49:30.924Z,102583.63
2022-10-26T08:52:01.451Z,102577.53
2022-10-26T08:54:55.911Z,102560.19
2022-10-26T08:57:25.186Z,102541.59
2022-10-26T09:00:00.392Z,102538.13
2022-10-26T09:02:27.052Z,102515.66
2022-10-26T09:04:55.169Z,102527.81
2022-10-26T09:07:45.959Z,102526.94
2022-10-26T09:10:25.744Z,102515.06
2022-10-26T09:13:04.256Z,102470.09
2022-10-26T09:15:48.837Z,102453.44
2022-10-26T09:18:43.253Z,102418.72
2022-10-26T09:21:25.435Z,102372.56
2022-10-26T09:24:03.918Z,102328.03
2022-10-26T09:26:54.718Z,102228.75
2022-10-26T09:29:28.783Z,102169.59
2022-10-26T09:31:57.311Z,102121.66
2022-10-26T09:34:31.571Z,102129.34
2022-10-26T09:36:58.457Z,102141.31
2022-10-26T09:39:36.673Z,102137.34
2022-10-26T09:42:10.313Z,102099.94
2022-10-26T09:44:47.728Z,102105.34
2022-10-26T09:47:27.827Z,102097.00
2022-10-26T09:49:58.705Z,102094.53
2022-10-26T09:52:25.131Z,102091.81
2022-10-26T09:54:51.598Z,102092.69
2022-10-26T09:57:20.257Z,102094.06
2022-10-26T09:59:47.970Z,102075.72
2022-10-26T10:02:37.670Z,102042.25
2022-10-26T10:08:24.454Z,101963.38
2022-10-26T10:10:56.810Z,101928.63
2022-10-26T10:13:25.508Z,101888.91
2022-10-26T10:16:20.739Z,101854.03
2022-10-26T10:18:55.668Z,101807.97
2022-10-26T10:21:36.814Z,101753.53
2022-10-26T10:24:25.379Z,101715.13
2022-10-26T10:27:05.782Z,101671.81
2022-10-26T10:29:34.426Z,101645.91
2022-10-26T10:32:03.389Z,101610.91
2022-10-26T10:34:31.502Z,101569.44
2022-10-26T10:36:59.395Z,101552.38
2022-10-26T10:39:33.332Z,101515.66
2022-10-26T10:42:01.101Z,101485.16
2022-10-26T10:44:31.402Z,101474.94
2022-10-26T10:47:04.062Z,101489.13
2022-10-26T10:49:31.332Z,101499.25
2022-10-26T10:51:58.527Z,101534.38
2022-10-26T10:54:36.503Z,101550.00
2022-10-26T10:57:25.979Z,101544.16
2022-10-26T11:00:12.011Z,101557.88
2022-10-26T11:03:16.695Z,101550.84
2022-10-26T11:06:05.737Z,101527.34
2022-10-26T11:08:57.151Z,101517.63
2022-10-26T11:11:27.271Z,101520.69
2022-10-26T11:14:02.742Z,101515.41
2022-10-26T11:16:44.162Z,101512.28
2022-10-26T11:19:22.272Z,101515.97
2022-10-26T11:21:53.835Z,101533.84
2022-10-26T11:24:38.210Z,101607.53
2022-10-26T11:27:18.822Z,101519.13
2022-10-26T11:30:13.662Z,101781.00
2022-10-26T11:32:45.891Z,101746.13
2022-10-26T11:35:18.659Z,101736.78
2022-10-26T11:38:04.477Z,101727.63
2022-10-26T11:41:01.855Z,101709.75
2022-10-26T11:43:37.220Z,101712.09
2022-10-26T11:46:19.276Z,101726.75
2022-10-26T11:49:10.799Z,101738.19
2022-10-26T11:51:50.710Z,101726.78
2022-10-26T11:54:25.561Z,101703.34
2022-10-26T11:56:55.542Z,101642.56
2022-10-26T11:59:28.009Z,101582.75
2022-10-26T12:02:04.771Z,101544.72
2022-10-26T12:04:35.571Z,101552.75
2022-10-26T12:07:08.381Z,101487.16
2022-10-26T12:09:38.814Z,101463.22
2022-10-26T12:12:14.465Z,101420.63
2022-10-26T12:14:54.038Z,101385.72
2022-10-26T12:17:43.731Z,101332.19
2022-10-26T12:20:41.563Z,101308.03
2022-10-26T12:23:12.178Z,101310.53
2022-10-26T12:25:40.257Z,101273.69
2022-10-26T12:28:39.454Z,101243.00
2022-10-26T12:31:36.974Z,101214.19
2022-10-26T12:34:14.912Z,101359.63
2022-10-26T12:36:56.645Z,101469.69
2022-10-26T12:39:36.248Z,101473.81
2022-10-26T12:42:05.736Z,101490.94
2022-10-26T12:45:07.411Z,101519.00
2022-10-26T12:47:33.769Z,101516.25
2022-10-26T12:50:06.565Z,101507.88
2022-10-26T12:52:54.851Z,101497.22
2022-10-26T12:55:42.620Z,101488.88
2022-10-26T12:58:38.432Z,101494.09
2022-10-26T13:01:30.801Z,101491.03
2022-10-26T13:04:15.346Z,101488.44
2022-10-26T13:06:54.506Z,101494.06
2022-10-26T13:09:24.938Z,101503.78
2022-10-26T13:11:55.331Z,101493.03
2022-10-26T13:14:25.643Z,101485.88
2022-10-26T13:16:52.711Z,101476.00
2022-10-26T13:19:30.534Z,101490.53
2022-10-26T13:21:59.678Z,101487.16
2022-10-26T13:24:29.688Z,101474.81
2022-10-26T13:27:05.147Z,101476.56
2022-10-26T13:29:32.931Z,101475.50
2022-10-26T13:32:00.261Z,101486.72
2022-10-26T13:34:30.955Z,101477.66
2022-10-26T13:37:00.614Z,101481.66
2022-10-26T13:39:31.606Z,101475.97
2022-10-26T13:41:59.686Z,101475.63
2022-10-26T13:44:35.199Z,101470.81
2022-10-26T13:47:10.690Z,101472.09
2022-10-26T13:49:40.470Z,101460.34
2022-10-26T13:52:21.218Z,101460.06
2022-10-26T13:54:55.877Z,101468.22
2022-10-26T13:57:37.456Z,101480.59
2022-10-26T14:00:23.203Z,101490.13
2022-10-26T14:02:49.983Z,101509.97
2022-10-26T14:05:18.331Z,101532.47
2022-10-26T14:07:49.478Z,101550.34
2022-10-26T14:10:48.501Z,101571.41
2022-10-26T14:13:18.149Z,101580.84
2022-10-26T14:15:46.257Z,101587.63
2022-10-26T14:18:26.489Z,101596.50
2022-10-26T14:20:57.051Z,101582.03
2022-10-26T14:23:27.355Z,101552.38
2022-10-26T14:25:59.088Z,101555.75
2022-10-26T14:28:31.893Z,101556.41
2022-10-26T14:31:20.744Z,101550.88
2022-10-26T14:33:47.385Z,101527.41
2022-10-26T14:36:15.612Z,101510.16
2022-10-26T14:38:44.822Z,101504.44
2022-10-26T14:41:15.742Z,101505.81
2022-10-26T14:43:43.854Z,101493.81
2022-10-26T14:46:18.306Z,101491.53
2022-10-26T14:48:54.706Z,101493.31
2022-10-26T14:51:26.708Z,101488.91
2022-10-26T14:53:58.635Z,101494.75
2022-10-26T14:56:43.323Z,101477.09
2022-10-26T14:59:31.268Z,101471.28
2022-10-26T15:02:21.299Z,101453.22
2022-10-26T15:05:01.594Z,101454.38
2022-10-26T15:07:36.689Z,101441.69
2022-10-26T15:10:03.502Z,101429.63
2022-10-26T15:12:34.745Z,101421.84
2022-10-26T15:15:11.172Z,101419.50
2022-10-26T15:17:42.260Z,101415.69
2022-10-26T15:20:17.549Z,101400.53
2022-10-26T15:22:52.607Z,101402.94
2022-10-26T15:25:26.189Z,101400.88
2022-10-26T15:27:53.048Z,101389.66
2022-10-26T15:30:27.824Z,101388.88
2022-10-26T15:32:55.866Z,101391.44
2022-10-26T15:35:28.334Z,101393.41
2022-10-26T15:37:56.266Z,101377.50
2022-10-26T15:42:59.742Z,101371.34
2022-10-26T15:45:31.703Z,101360.13
2022-10-26T15:48:00.342Z,101339.94
2022-10-26T15:50:28.745Z,101343.69
2022-10-26T15:53:01.588Z,101345.81
2022-10-26T15:55:30.120Z,101360.47
2022-10-26T15:57:56.581Z,101348.34
2022-10-26T16:00:23.162Z,101340.31
2022-10-26T16:02:49.694Z,101345.44
2022-10-26T16:05:16.872Z,101334.44
2022-10-26T16:07:46.433Z,101329.66
2022-10-26T16:10:17.558Z,101294.16
2022-10-26T16:12:45.088Z,101260.88
2022-10-26T16:15:17.354Z,101229.63
2022-10-26T16:17:44.081Z,101234.47
2022-10-26T16:20:14.614Z,101239.53
2022-10-26T16:22:46.740Z,101249.47
2022-10-26T16:25:13.878Z,101250.97
2022-10-26T16:27:40.707Z,101258.06
2022-10-26T16:30:07.808Z,101254.78
2022-10-26T16:32:34.198Z,101263.44
2022-10-26T16:35:00.794Z,101269.09
2022-10-26T16:37:29.187Z,101268.03
2022-10-26T16:39:55.557Z,101266.34
2022-10-26T16:42:22.058Z,101281.91
2022-10-26T16:44:48.532Z,101285.78
2022-10-26T16:47:14.962Z,101285.91
2022-10-26T16:49:43.294Z,101293.28
2022-10-26T16:52:10.010Z,101307.47
2022-10-26T16:54:36.426Z,101316.13
2022-10-26T16:57:03.228Z,101334.41
2022-10-26T16:59:29.825Z,101353.31
2022-10-26T17:01:56.918Z,101369.53
2022-10-26T17:04:23.854Z,101384.25
2022-10-26T17:06:50.535Z,101394.34
2022-10-26T17:09:16.955Z,101408.84
2022-10-26T17:11:43.361Z,101435.53
2022-10-26T17:14:09.863Z,101441.34
2022-10-26T17:16:36.279Z,101452.41
2022-10-26T17:19:02.735Z,101469.88
2022-10-26T17:21:31.574Z,101469.78
2022-10-26T17:23:58.642Z,101493.03
2022-10-26T17:26:25.119Z,101508.47
2022-10-26T17:28:52.757Z,101513.56
2022-10-26T17:31:19.283Z,101524.72
2022-10-26T17:33:50.111Z,101559.03
2022-10-26T17:36:20.208Z,101576.56
2022-10-26T17:38:51.055Z,101605.88
2022-10-26T17:41:19.549Z,101610.34
2022-10-26T17:43:47.270Z,101634.97
2022-10-26T17:46:20.468Z,101639.03
2022-10-26T17:48:47.126Z,101646.09
2022-10-26T17:51:16.296Z,101659.91
2022-10-26T17:53:42.761Z,101666.78
2022-10-26T17:56:15.407Z,101684.88
2022-10-26T17:58:41.891Z,101684.69
2022-10-26T18:01:10.906Z,101697.00
2022-10-26T18:03:38.666Z,101707.84
2022-10-26T18:06:09.688Z,101719.63
2022-10-26T18:08:37.829Z,101712.78
2022-10-26T18:11:05.569Z,101730.31
2022-10-26T18:13:33.992Z,101734.31
2022-10-26T18:16:16.256Z,101745.34
2022-10-26T18:18:50.070Z,101745.56
2022-10-26T18:21:19.538Z,101758.09
2022-10-26T18:23:46.811Z,101774.97
2022-10-26T18:26:17.158Z,101779.53
2022-10-26T18:28:44.559Z,101786.69
2022-10-26T18:31:14.606Z,101793.50
2022-10-26T18:33:41.507Z,101809.63
2022-10-26T18:36:18.586Z,101818.16
2022-10-26T18:38:48.126Z,101833.38
2022-10-26T18:41:16.703Z,101832.53
2022-10-26T18:43:45.425Z,101827.91
2022-10-26T18:46:20.785Z,101830.25
2022-10-26T18:48:48.200Z,101823.09
2022-10-26T18:51:17.283Z,101825.72
2022-10-26T18:53:45.244Z,101812.91
2022-10-26T18:56:14.470Z,101818.94
2022-10-26T18:58:46.804Z,101811.97
2022-10-26T19:01:17.825Z,101806.38
2022-10-26T19:03:45.374Z,101799.69
2022-10-26T19:06:18.241Z,101797.50
2022-10-26T19:08:45.297Z,101788.81
2022-10-26T19:11:16.339Z,101778.41
2022-10-26T19:13:43.396Z,101774.97
2022-10-26T19:16:17.251Z,101771.00
2022-10-26T19:18:48.732Z,101765.53
2022-10-26T19:21:19.199Z,101762.19
2022-10-26T19:23:47.899Z,101761.81
2022-10-26T19:26:17.783Z,101766.13
2022-10-26T19:28:44.259Z,101747.88
2022-10-26T19:31:13.138Z,101748.47
2022-10-26T19:33:39.819Z,101748.38
2022-10-26T19:36:10.410Z,101743.28
2022-10-26T19:38:36.905Z,101738.34
2022-10-26T19:41:06.129Z,101739.22
2022-10-26T19:43:34.643Z,101739.88
2022-10-26T19:46:08.683Z,101742.47
2022-10-26T19:48:35.302Z,101739.91
2022-10-26T19:51:01.728Z,101732.66
2022-10-26T19:53:28.370Z,101751.63
2022-10-26T19:55:59.652Z,101757.22
2022-10-26T19:58:28.666Z,101759.69
2022-10-26T20:01:00.313Z,101770.25
2022-10-26T20:03:28.921Z,101770.22
2022-10-26T20:05:57.025Z,101799.88
2022-10-26T20:08:24.120Z,101806.44
2022-10-26T20:10:53.536Z,101806.69
2022-10-26T20:13:20.030Z,101813.34
2022-10-26T20:15:46.820Z,101825.22
2022-10-26T20:18:13.573Z,101839.22
2022-10-26T20:20:40.014Z,101835.13
2022-10-26T20:23:08.023Z,101850.31
2022-10-26T20:25:35.798Z,101858.22
2022-10-26T20:28:03.396Z,101856.50
2022-10-26T20:30:32.647Z,101877.22
2022-10-26T20:32:59.647Z,101883.69
2022-10-26T20:35:26.065Z,101891.69
2022-10-26T20:37:53.805Z,101912.41
2022-10-26T20:40:24.022Z,101925.88
2022-10-26T20:42:52.389Z,101930.59
2022-10-26T20:45:26.543Z,101944.00
2022-10-26T20:47:54.551Z,101951.91
2022-10-26T20:50:26.187Z,101975.13
2022-10-26T20:53:02.952Z,101984.34
2022-10-26T20:55:36.177Z,101985.00
2022-10-26T20:58:09.591Z,101988.28
2022-10-26T21:00:43.369Z,102004.13
2022-10-26T21:03:11.447Z,102005.22
2022-10-26T21:05:46.843Z,102001.94
2022-10-26T21:08:13.600Z,102008.44
2022-10-26T21:10:40.076Z,102026.16
2022-10-26T21:13:06.562Z,102025.75
2022-10-26T21:15:35.451Z,102032.03
2022-10-26T21:18:01.992Z,102033.56
2022-10-26T21:20:29.034Z,102047.19
2022-10-26T21:22:55.527Z,102039.66
2022-10-26T21:25:21.926Z,102034.66
2022-10-26T21:27:48.669Z,102031.81
2022-10-26T21:30:15.207Z,102045.00
2022-10-26T21:32:41.604Z,102046.38
2022-10-26T21:35:08.180Z,102047.28
2022-10-26T21:37:34.581Z,102050.75
2022-10-26T21:40:01.077Z,102047.13
2022-10-26T21:42:27.471Z,102043.06
2022-10-26T21:44:53.896Z,102035.84
2022-10-26T21:47:20.283Z,102023.72
2022-10-26T21:49:46.681Z,102026.44
2022-10-26T21:52:13.118Z,102027.66
2022-10-26T21:54:39.517Z,102031.28
2022-10-26T21:57:05.985Z,102030.34
2022-10-26T21:59:32.426Z,102030.00
2022-10-26T22:01:59.056Z,102031.25
2022-10-26T22:04:25.666Z,102032.09
2022-10-26T22:06:52.078Z,102039.00
2022-10-26T22:09:18.572Z,102028.00
2022-10-26T22:11:45.012Z,102021.28
2022-10-26T22:14:14.265Z,102035.91
2022-10-26T22:16:40.675Z,102038.28
2022-10-26T22:19:08.203Z,102044.69
2022-10-26T22:21:37.803Z,102048.22
2022-10-26T22:24:04.751Z,102054.78
2022-10-26T22:26:33.841Z,102045.53
2022-10-26T22:29:00.272Z,102056.22
2022-10-26T22:31:32.840Z,102061.72
2022-10-26T22:34:04.814Z,102048.69
2022-10-26T22:36:33.970Z,102051.66
2022-10-26T22:39:00.576Z,102053.78
2022-10-26T22:41:27.117Z,102051.97
2022-10-26T22:43:53.534Z,102044.94
2022-10-26T22:46:25.016Z,102047.59
2022-10-26T22:48:59.997Z,102054.44
2022-10-26T22:51:29.399Z,102062.75
2022-10-26T22:53:57.935Z,102054.63
2022-10-26T22:58:53.398Z,102058.47
2022-10-26T23:01:23.096Z,102060.81
2022-10-26T23:03:49.954Z,102067.03
2022-10-26T23:06:18.779Z,102075.63
2022-10-26T23:08:45.560Z,102084.22
2022-10-26T23:11:14.970Z,102091.56
2022-10-26T23:13:41.755Z,102098.69
2022-10-26T23:16:17.888Z,102109.59
2022-10-26T23:18:44.401Z,102115.78
2022-10-26T23:21:12.757Z,102113.25
2022-10-26T23:23:39.973Z,102121.34
2022-10-26T23:26:09.293Z,102131.56
2022-10-26T23:28:36.399Z,102139.69
2022-10-26T23:31:03.686Z,102150.22
2022-10-26T23:33:30.505Z,102153.78
2022-10-26T23:35:57.434Z,102152.69
2022-10-26T23:38:24.676Z,102161.00
2022-10-26T23:40:52.828Z,102172.75
2022-10-26T23:43:20.061Z,102174.25
2022-10-26T23:45:47.353Z,102185.44
2022-10-26T23:48:14.115Z,102192.03
2022-10-26T23:50:44.608Z,102197.78
2022-10-26T23:53:12.348Z,102205.97
2022-10-26T23:55:38.835Z,102212.91
2022-10-26T23:58:05.324Z,102225.25
